Toernooibase
HOME | LAATST INGEVOERD | RATINGS | TOERNOOIEN | ACTUEEL | PARTIJEN | POSITIES | LINKS |

Speler: 
 Hein Meijer 
Leeftijd:
 58
Rating per 1-7-2018: 
 1440
Hoogste rating ooit:
 1507
All time gemiddelde:
 1453
     .
DatumToernooiTegenstanderRatWePtR.verN.percN.pun
za 21-07-2018  Heerhugowaard Open SNA Heerhugowaard  Boudewijn van der Veen  1015 1-2425 0.93 1.86
zo 22-07-2018  Heerhugowaard Open SNA Heerhugowaard  Hans Tangelder  1119 1-2321 0.87 1.74
ma 23-07-2018  Heerhugowaard Open SNA Heerhugowaard  Theo Tesselaar  1203 1-1237 0.8 1.59
di 24-07-2018  Heerhugowaard Open SNA Heerhugowaard  Alexander Shvartsman  1588 1-1-148 0.3 0.6
di 24-07-2018  Heerhugowaard Open SNA Heerhugowaard  Christian Niami  1447 1-1-7 0.49 0.98
wo 25-07-2018  Heerhugowaard Open SNA Heerhugowaard  Ruud Groot  1119 1-2321 0.87 1.74
do 26-07-2018  Heerhugowaard Open SNA Heerhugowaard  Bassirou Ba  1460 1-1-20 0.47 0.94
vr 27-07-2018  Heerhugowaard Open SNA Heerhugowaard  Thomy Lucien Mbongo  1452 1-1-12 0.48 0.97
za 28-07-2018  Heerhugowaard Open SNA Heerhugowaard  Alexander Verkhovykh  1358 1-182 0.61 1.23
zo 19-08-2018  Polish Open Szczyrk Buitenland  Daan van Os  1059 1-2381 0.91 1.82
di 21-08-2018  Polish Open Szczyrk Buitenland  Egor Bobkov  1252 1-2188 0.74 1.49
di 21-08-2018  Polish Open Szczyrk Buitenland  Christian Niami  1447 1-1-7 0.49 0.98
wo 22-08-2018  Polish Open Szczyrk Buitenland  Yuriy Anikeev  1506 1-1-66 0.41 0.82
do 23-08-2018  Polish Open Szczyrk Buitenland  Alexander Baliakin  1560 1-1-120 0.34 0.67
do 23-08-2018  Polish Open Szczyrk Buitenland  Guntis Valneris  1542 1-1-102 0.36 0.72
vr 24-08-2018  Polish Open Szczyrk Buitenland  Evgeni Vatutin  1463 1-1-23 0.47 0.94
za 25-08-2018  Polish Open Szczyrk Buitenland  Ron Heusdens  1499 1-1-59 0.42 0.84
za 15-09-2018  Nationale Clubcompetitie KNDB  Bart Terwel  1364 1-176 0.6 1.21
ma 17-09-2018  Turkish Open Izmir Buitenland  Artem Ivanov  1512 1-1-72 0.4 0.8
ma 17-09-2018  Turkish Open Izmir Buitenland  Ivan Trofimov  1474 1-0-34 0.45 0.9
wo 19-09-2018  Turkish Open Izmir Buitenland  Lukasz Kosobudzki  1267 1-1173 0.73 1.46
do 20-09-2018  Turkish Open Izmir Buitenland  Ron Heusdens  1499 1-0-59 0.42 0.84
vr 21-09-2018  Turkish Open Izmir Buitenland  Murodullo Amrillaev  1491 1-1-51 0.43 0.86
za 29-09-2018  Nationale Clubcompetitie KNDB  Zainal Palmans  1366 1-174 0.6 1.2
za 13-10-2018  Nationale Clubcompetitie KNDB  Berke Yiğittürk  1149 1-2291 0.85 1.69
wo 17-10-2018  Open Kampioenschap van ADG Amersfoort  Jan van de Veen  1152 1-2288 0.84 1.69
wo 17-10-2018  Open Kampioenschap van ADG Amersfoort  Mari van Ballegooijen  1287 1-2153 0.7 1.41
do 18-10-2018  Open Kampioenschap van ADG Amersfoort  Losseni Savané  1268 1-2172 0.73 1.45
do 18-10-2018  Open Kampioenschap van ADG Amersfoort  Peter van der Stap  1336 1-2104 0.64 1.28
vr 19-10-2018  Open Kampioenschap van ADG Amersfoort  Anton van Berkel  1402 1-138 0.55 1.11
vr 19-10-2018  Open Kampioenschap van ADG Amersfoort  Thomy Lucien Mbongo  1452 1-1-12 0.48 0.97
za 20-10-2018  Open Kampioenschap van ADG Amersfoort  Alexander Shvartsman  1588 1-1-148 0.3 0.6
za 27-10-2018  Nationale Clubcompetitie KNDB  Thijs van den Broek  1326 1-1114 0.66 1.31
za 10-11-2018  Nationale Clubcompetitie KNDB  Erik Hoogendoorn  1268 1-1172 0.73 1.45
za 24-11-2018  Nationale Clubcompetitie KNDB  Ronald van de Beek  1204 1-2236 0.8 1.59
za 08-12-2018  Nationale Clubcompetitie KNDB  Johan Sterrenburg  1392 1-148 0.57 1.13
za 05-01-2019  Nationale Clubcompetitie KNDB  Joost Hendriksen  1337 1-2103 0.64 1.28
za 12-01-2019  Halve Finale NK Algemeen KNDB  Waldo Aliar  1312 1-2128 0.67 1.35
za 12-01-2019  Halve Finale NK Algemeen KNDB  Han Seinhorst  1232 1-2208 0.77 1.53
za 19-01-2019  Nationale Clubcompetitie KNDB  Evgeni Vatutin  1463 1-1-23 0.47 0.94
za 26-01-2019  Halve Finale NK Algemeen KNDB  Casper Remeijer  1378 1-162 0.59 1.17
za 26-01-2019  Halve Finale NK Algemeen KNDB  Jan Lammers  1173 1-2267 0.82 1.65
za 02-02-2019  Nationale Clubcompetitie KNDB  Ivan Trofimov  1474 1-1-34 0.45 0.9
za 09-02-2019  Halve Finale NK Algemeen KNDB  Ben Provoost  1439 1-11 0.5 1
za 09-02-2019  Halve Finale NK Algemeen KNDB  Steven den Hollander  1277 1-1163 0.72 1.43
za 16-02-2019  Nationale Clubcompetitie KNDB  Jan van Dijk  1426 1-014 0.52 1.04
za 23-02-2019  Halve Finale NK Algemeen KNDB  Frank Teer  1339 1-1101 0.64 1.28
vr 05-04-2019  Nederlands Kampioenschap Algemeen KNDB  Niek Kuijvenhoven  1370 1-170 0.6 1.19
za 06-04-2019  Nederlands Kampioenschap Algemeen KNDB  Wouter Sipma  1461 1-1-21 0.47 0.94
za 06-04-2019  Nederlands Kampioenschap Algemeen KNDB  Jan Groenendijk  1527 1-1-87 0.38 0.76
zo 07-04-2019  Nederlands Kampioenschap Algemeen KNDB  Anton van Berkel  1402 1-138 0.55 1.11
ma 08-04-2019  Nederlands Kampioenschap Algemeen KNDB  Casper Remeijer  1378 1-162 0.59 1.17
di 09-04-2019  Nederlands Kampioenschap Algemeen KNDB  Ron Heusdens  1499 1-1-59 0.42 0.84
wo 10-04-2019  Nederlands Kampioenschap Algemeen KNDB  Alexander Baliakin  1560 1-0-120 0.34 0.67
wo 10-04-2019  Nederlands Kampioenschap Algemeen KNDB  Rob Geurtsen  1302 1-1138 0.69 1.37
do 11-04-2019  Nederlands Kampioenschap Algemeen KNDB  Martijn van IJzendoorn  1534 1-1-94 0.37 0.74
vr 12-04-2019  Nederlands Kampioenschap Algemeen KNDB  Wim Kalis  1365 1-175 0.6 1.21
za 13-04-2019  Nederlands Kampioenschap Algemeen KNDB  Jos Stokkel  1425 1-115 0.52 1.04
di 28-05-2019  Salou Open Buitenland  Kees Romijn  1236 1-2204 0.76 1.52
di 28-05-2019  Salou Open Buitenland  Anton Kosior  1309 1-1131 0.68 1.35
wo 29-05-2019  Salou Open Buitenland  Taeke Kooistra  1242 1-1198 0.76 1.51
za 01-06-2019  Salou Open Buitenland  Bhiem Ramdien  1372 1-168 0.59 1.19
zo 02-06-2019  Salou Open Buitenland  Michel Stempher  1372 1-068 0.59 1.19
zo 09-06-2019  Golden Prague Buitenland  Petra Duskova  1043 1-2397 0.92 1.84
ma 10-06-2019  Golden Prague Buitenland  Gijs Schoenmakers  1239 1-1201 0.76 1.52
di 11-06-2019  Golden Prague Buitenland  Erwin Heslinga  1271 1-1169 0.72 1.45
wo 12-06-2019  Golden Prague Buitenland  IJsbrand Haven  1216 1-1224 0.78 1.57
do 13-06-2019  Golden Prague Buitenland  Roberts Misans  1494 1-1-54 0.43 0.85
vr 14-06-2019  Golden Prague Buitenland  Bas Messemaker  1403 1-137 0.55 1.1
za 15-06-2019  Golden Prague Buitenland  Kees Romijn  1236 1-1204 0.76 1.52
 Totaal:70-8284.11
 Correctiefactor:5 (1149 p.)
 Berekening:82-84.11 x5=-10.57
 Virtuele rating: 1429
 Ratinggem.: 1357 Perc.:0.59Vers.: 62
 Seizoenpr. rating: 1357 +62 1419
* officiele KNDB-rating kan afwijkend zijn van virtuele rating in verband met nieuwe iRp-check